Time;durP1;ratioP1;P1;durP2;ratioP2;P2;SDS_P1;SDS_P2;PMS_P1;PMS_P2;Temp;Humidity;BMP_temperature;BMP_pressure;BME280_temperature;BME280_humidity;BME280_pressure;Samples;Min_cycle;Max_cycle;Signal;HPM_P1;HPM_P2
2024/02/03 00:00:13;;;;;;;11.23;4.72;;;;;;;-141.50;100.00;63355.56;5086678;28;20186;-79
2024/02/03 00:02:40;;;;;;;11.55;4.47;;;;;;;-141.50;100.00;63355.56;5108466;28;20047;-79
2024/02/03 00:05:07;;;;;;;12.30;5.15;;;;;;;-141.50;100.00;63355.56;5106606;28;20047;-80
2024/02/03 00:07:34;;;;;;;8.38;3.72;;;;;;;-141.50;100.00;63355.56;5071592;28;20048;-79
2024/02/03 00:10:01;;;;;;;9.15;4.32;;;;;;;-141.50;100.00;63355.56;5106838;28;20090;-78
2024/02/03 00:12:28;;;;;;;12.52;4.38;;;;;;;-141.50;100.00;63355.56;5072398;28;20036;-78
2024/02/03 00:14:56;;;;;;;12.43;4.72;;;;;;;-141.50;100.00;63355.56;5090420;28;20044;-79
2024/02/03 00:17:23;;;;;;;10.85;4.47;;;;;;;-141.50;100.00;63355.56;5108036;28;20086;-79
2024/02/03 00:19:53;;;;;;;10.80;4.45;;;;;;;-141.50;100.00;63355.56;5084533;28;20436;-78
2024/02/03 00:22:20;;;;;;;12.45;5.30;;;;;;;-141.50;100.00;63355.56;5106364;28;20055;-79
2024/02/03 00:24:48;;;;;;;13.05;5.00;;;;;;;-141.50;100.00;63355.56;5102259;28;20073;-80
2024/02/03 00:27:15;;;;;;;11.93;4.93;;;;;;;-141.50;100.00;63355.56;5122925;28;20064;-81
2024/02/03 00:29:42;;;;;;;13.60;4.97;;;;;;;-141.50;100.00;63355.56;5094549;28;20103;-82
2024/02/03 00:32:08;;;;;;;10.13;4.97;;;;;;;-141.50;100.00;63355.56;5078265;28;20055;-79
2024/02/03 00:34:35;;;;;;;12.90;5.50;;;;;;;-141.50;100.00;63355.56;5087786;28;20040;-82
2024/02/03 00:37:03;;;;;;;12.70;5.13;;;;;;;-141.50;100.00;63355.56;5098738;28;20100;-78
2024/02/03 00:39:30;;;;;;;11.75;4.88;;;;;;;-141.50;100.00;63355.56;5096758;28;20073;-81
2024/02/03 00:41:57;;;;;;;11.88;5.30;;;;;;;-141.50;100.00;63355.56;5117656;28;20047;-78
2024/02/03 00:44:23;;;;;;;15.00;5.35;;;;;;;-141.50;100.00;63355.56;5094514;28;20059;-82
2024/02/03 00:46:50;;;;;;;12.55;5.07;;;;;;;-141.50;100.00;63355.56;5097158;28;20055;-81
2024/02/03 00:49:17;;;;;;;17.13;5.50;;;;;;;-141.50;100.00;63355.56;5075221;28;20410;-79
2024/02/03 00:51:44;;;;;;;11.80;4.78;;;;;;;-141.50;100.00;63355.56;5112064;28;20023;-81
2024/02/03 00:54:11;;;;;;;14.05;5.13;;;;;;;-141.50;100.00;63355.56;5110159;28;20040;-78
2024/02/03 00:56:37;;;;;;;11.05;4.80;;;;;;;-141.50;100.00;63355.56;5116030;28;20097;-80
2024/02/03 00:59:04;;;;;;;12.75;4.90;;;;;;;-141.50;100.00;63355.56;5092142;28;20047;-81
2024/02/03 01:01:31;;;;;;;11.20;4.60;;;;;;;-141.50;100.00;63355.56;5107229;28;20067;-79
2024/02/03 01:04:01;;;;;;;14.93;5.30;;;;;;;-141.50;100.00;63355.56;5110236;28;20063;-81
2024/02/03 01:06:28;;;;;;;9.25;4.65;;;;;;;-141.50;100.00;63355.56;5110404;28;20053;-81
2024/02/03 01:08:55;;;;;;;12.25;5.22;;;;;;;-141.50;100.00;63355.56;5117621;28;20040;-79
2024/02/03 01:11:22;;;;;;;11.40;5.03;;;;;;;-141.50;100.00;63355.56;5126486;28;20111;-78
2024/02/03 01:13:49;;;;;;;10.20;4.93;;;;;;;-141.50;100.00;63355.56;5092552;28;20048;-78
2024/02/03 01:16:16;;;;;;;13.00;4.78;;;;;;;-141.50;100.00;63355.56;5110191;28;20052;-81
2024/02/03 01:18:43;;;;;;;13.68;4.70;;;;;;;-141.50;100.00;63355.56;5101669;28;20039;-81
2024/02/03 01:21:22;;;;;;;11.77;4.82;;;;;;;-141.50;100.00;63355.56;5092792;28;20075;-81
2024/02/03 01:23:49;;;;;;;10.65;5.25;;;;;;;-141.50;100.00;63355.56;5110708;28;20385;-78
2024/02/03 01:26:17;;;;;;;11.40;4.95;;;;;;;-141.50;100.00;63355.56;5078693;28;20058;-79
2024/02/03 01:28:44;;;;;;;11.10;4.93;;;;;;;-141.50;100.00;63355.56;5093091;28;20052;-80
2024/02/03 01:31:11;;;;;;;13.38;4.78;;;;;;;-141.50;100.00;63355.56;5091919;28;20044;-81
2024/02/03 01:33:38;;;;;;;10.77;4.82;;;;;;;-141.50;100.00;63355.56;5111055;28;20589;-80
2024/02/03 01:36:05;;;;;;;9.30;4.47;;;;;;;-141.50;100.00;63355.56;5091383;28;20052;-79
2024/02/03 01:38:35;;;;;;;12.13;5.03;;;;;;;-141.50;100.00;63355.56;5097519;28;20098;-78
2024/02/03 01:41:02;;;;;;;10.65;5.35;;;;;;;-141.50;100.00;63355.56;5105636;28;20096;-77
2024/02/03 01:43:29;;;;;;;14.13;5.22;;;;;;;-141.50;100.00;63355.56;5106927;28;20630;-82
2024/02/03 01:45:56;;;;;;;12.80;5.15;;;;;;;-141.50;100.00;63355.56;5108317;28;20046;-80
2024/02/03 01:48:24;;;;;;;11.77;5.00;;;;;;;-141.50;100.00;63355.56;5086462;28;20055;-81
2024/02/03 01:50:52;;;;;;;9.55;5.35;;;;;;;-141.50;100.00;63355.56;5092665;28;20046;-81
2024/02/03 01:53:22;;;;;;;9.20;4.90;;;;;;;-141.50;100.00;63355.56;5084629;28;20934;-78
2024/02/03 01:55:51;;;;;;;12.15;5.13;;;;;;;-141.50;100.00;63355.56;5092871;28;20083;-79
2024/02/03 01:58:19;;;;;;;10.95;5.32;;;;;;;-141.50;100.00;63355.56;5106569;28;20055;-78
2024/02/03 02:00:46;;;;;;;8.68;4.75;;;;;;;-141.50;100.00;63355.56;5089577;28;20502;-79
2024/02/03 02:03:14;;;;;;;14.30;5.20;;;;;;;-141.50;100.00;63355.56;5091981;28;20067;-78
2024/02/03 02:05:42;;;;;;;12.45;4.65;;;;;;;-141.50;100.00;63355.56;5113541;28;20040;-81
2024/02/03 02:08:08;;;;;;;8.65;4.75;;;;;;;-141.50;100.00;63355.56;5111850;28;20576;-80
2024/02/03 02:10:38;;;;;;;10.55;4.72;;;;;;;-141.50;100.00;63355.56;5090199;28;20051;-80
2024/02/03 02:13:05;;;;;;;12.38;5.07;;;;;;;-141.50;100.00;63355.56;5097267;28;20086;-77
2024/02/03 02:15:32;;;;;;;13.52;5.53;;;;;;;-141.50;100.00;63355.56;5097607;28;20126;-79
2024/02/03 02:18:00;;;;;;;14.35;5.35;;;;;;;-141.50;100.00;63355.56;5076040;28;20122;-79
2024/02/03 02:20:27;;;;;;;12.48;4.47;;;;;;;-141.50;100.00;63355.56;5088894;28;20104;-76
2024/02/03 02:22:54;;;;;;;11.35;5.50;;;;;;;-141.50;100.00;63355.56;5094417;28;20043;-81
2024/02/03 02:25:21;;;;;;;11.80;5.32;;;;;;;-141.50;100.00;63355.56;5089528;28;20058;-79
2024/02/03 02:27:48;;;;;;;12.40;5.22;;;;;;;-141.50;100.00;63355.56;5089108;28;20066;-79
2024/02/03 02:30:20;;;;;;;11.93;4.90;;;;;;;-141.50;100.00;63355.56;5111297;27;20058;-79
2024/02/03 02:32:47;;;;;;;12.60;5.10;;;;;;;-141.50;100.00;63355.56;5111838;28;20640;-80
2024/02/03 02:35:14;;;;;;;13.68;5.03;;;;;;;-141.50;100.00;63355.56;5102017;28;20440;-79
2024/02/03 02:37:40;;;;;;;11.82;5.10;;;;;;;-141.50;100.00;63355.56;5090758;28;20578;-79
2024/02/03 02:40:08;;;;;;;11.70;4.88;;;;;;;-141.50;100.00;63355.56;5110450;28;20079;-79
2024/02/03 02:42:35;;;;;;;12.57;5.38;;;;;;;-141.50;100.00;63355.56;5109231;28;20496;-81
2024/02/03 02:45:04;;;;;;;9.68;4.95;;;;;;;-141.50;100.00;63355.56;5091587;28;20036;-80
2024/02/03 02:47:31;;;;;;;10.07;4.75;;;;;;;-141.50;100.00;63355.56;5067041;28;20040;-78
2024/02/03 02:49:58;;;;;;;10.82;4.78;;;;;;;-141.50;100.00;63355.56;5090887;28;20054;-79
2024/02/03 02:52:25;;;;;;;10.73;5.10;;;;;;;-141.50;100.00;63355.56;5087732;28;20052;-77
2024/02/03 02:54:52;;;;;;;8.60;4.93;;;;;;;-141.50;100.00;63355.56;5091621;28;20170;-79
2024/02/03 02:57:19;;;;;;;10.55;4.40;;;;;;;-141.50;100.00;63355.56;5090703;28;20070;-79
2024/02/03 02:59:46;;;;;;;9.00;4.80;;;;;;;-141.50;100.00;63355.56;5091401;28;20047;-78
2024/02/03 03:02:13;;;;;;;8.77;4.38;;;;;;;-141.50;100.00;63355.56;5072072;28;20047;-80
2024/02/03 03:04:39;;;;;;;9.02;4.68;;;;;;;-141.50;100.00;63355.56;5073817;28;20046;-79
2024/02/03 03:07:06;;;;;;;9.90;4.53;;;;;;;-141.50;100.00;63355.56;5085893;28;20044;-78
2024/02/03 03:09:33;;;;;;;10.05;4.55;;;;;;;-141.50;100.00;63355.56;5089501;28;20051;-79
2024/02/03 03:12:03;;;;;;;11.07;4.63;;;;;;;-141.50;100.00;63355.56;5090422;28;20040;-78
2024/02/03 03:14:30;;;;;;;12.98;5.40;;;;;;;-141.50;100.00;63355.56;5075006;28;20131;-79
2024/02/03 03:16:57;;;;;;;8.88;4.30;;;;;;;-141.50;100.00;63355.56;5091407;28;20039;-78
2024/02/03 03:19:23;;;;;;;9.10;4.00;;;;;;;-141.50;100.00;63355.56;5109516;28;20502;-78
2024/02/03 03:21:51;;;;;;;10.45;4.40;;;;;;;-141.50;100.00;63355.56;5093158;28;20048;-78
2024/02/03 03:24:18;;;;;;;11.00;4.40;;;;;;;-141.50;100.00;63355.56;5107693;28;20088;-80
2024/02/03 03:26:44;;;;;;;9.48;4.80;;;;;;;-141.50;100.00;63355.56;5112943;28;20057;-79
2024/02/03 03:29:11;;;;;;;10.57;4.80;;;;;;;-141.50;100.00;63355.56;5111212;28;20146;-78
2024/02/03 03:31:42;;;;;;;12.25;5.20;;;;;;;-141.50;100.00;63355.56;5113190;28;20079;-78
2024/02/03 03:34:09;;;;;;;8.70;4.50;;;;;;;-141.50;100.00;63355.56;5087417;28;20490;-79
2024/02/03 03:36:37;;;;;;;9.38;4.68;;;;;;;-141.50;100.00;63355.56;5106855;27;20051;-79
2024/02/03 03:39:04;;;;;;;8.77;4.72;;;;;;;-141.50;100.00;63355.56;5065504;28;20098;-79
2024/02/03 03:41:31;;;;;;;11.73;4.68;;;;;;;-141.50;100.00;63355.56;5112404;28;20298;-80
2024/02/03 03:43:58;;;;;;;9.85;5.13;;;;;;;-141.50;100.00;63355.56;5091048;28;20263;-78
2024/02/03 03:46:24;;;;;;;10.95;4.88;;;;;;;-141.50;100.00;63355.56;5086538;28;20052;-78
2024/02/03 03:48:51;;;;;;;9.30;4.68;;;;;;;-141.50;100.00;63355.56;5087902;28;20506;-79
2024/02/03 03:51:18;;;;;;;11.60;5.00;;;;;;;-141.50;100.00;63355.56;5110761;28;20279;-80
2024/02/03 03:53:45;;;;;;;9.07;5.05;;;;;;;-141.50;100.00;63355.56;5099540;27;20055;-78
2024/02/03 03:56:15;;;;;;;10.60;5.03;;;;;;;-141.50;100.00;63355.56;5114378;27;20116;-81
2024/02/03 03:58:42;;;;;;;9.02;4.45;;;;;;;-141.50;100.00;63355.56;5092732;28;20048;-80
2024/02/03 04:01:11;;;;;;;9.23;4.78;;;;;;;-141.50;100.00;63355.56;5109616;28;20777;-79
2024/02/03 04:03:38;;;;;;;10.45;4.43;;;;;;;-141.50;100.00;63355.56;5109847;28;20105;-82
2024/02/03 04:06:05;;;;;;;9.15;4.40;;;;;;;-141.50;100.00;63355.56;5089840;28;20052;-82
2024/02/03 04:08:32;;;;;;;10.50;5.47;;;;;;;-141.50;100.00;63355.56;5093206;28;20506;-81
2024/02/03 04:10:59;;;;;;;10.23;4.65;;;;;;;-141.50;100.00;63355.56;5095228;28;20055;-78
2024/02/03 04:13:26;;;;;;;10.48;4.55;;;;;;;-141.50;100.00;63355.56;5115037;28;20340;-81
2024/02/03 04:15:53;;;;;;;8.90;4.35;;;;;;;-141.50;100.00;63355.56;5095660;28;20075;-79
2024/02/03 04:18:20;;;;;;;10.45;4.82;;;;;;;-141.50;100.00;63355.56;5099299;28;20485;-81
2024/02/03 04:20:47;;;;;;;7.53;3.97;;;;;;;-141.50;100.00;63355.56;5076893;28;20126;-80
2024/02/03 04:23:17;;;;;;;9.27;4.47;;;;;;;-141.50;100.00;63355.56;5064219;28;20094;-79
2024/02/03 04:25:44;;;;;;;10.30;4.75;;;;;;;-141.50;100.00;63355.56;5099647;28;20078;-78
2024/02/03 04:28:11;;;;;;;8.55;4.35;;;;;;;-141.50;100.00;63355.56;5059923;28;20060;-79
2024/02/03 04:30:37;;;;;;;8.77;4.78;;;;;;;-141.50;100.00;63355.56;5081998;28;20536;-78
2024/02/03 04:33:04;;;;;;;8.07;3.95;;;;;;;-141.50;100.00;63355.56;5086502;28;20051;-80
2024/02/03 04:35:33;;;;;;;8.57;4.25;;;;;;;-141.50;100.00;63355.56;5085744;28;20082;-78
2024/02/03 04:38:02;;;;;;;10.63;4.13;;;;;;;-141.50;100.00;63355.56;5107316;28;20067;-77
2024/02/03 04:40:29;;;;;;;6.97;3.55;;;;;;;-141.50;100.00;63355.56;5107380;28;20051;-78
2024/02/03 04:42:56;;;;;;;6.97;3.70;;;;;;;-141.50;100.00;63355.56;5090184;28;20127;-80
2024/02/03 04:45:22;;;;;;;6.90;3.72;;;;;;;-141.50;100.00;63355.56;5089249;28;20100;-78
2024/02/03 04:47:49;;;;;;;7.38;3.35;;;;;;;-141.50;100.00;63355.56;5091175;28;20094;-82
2024/02/03 04:50:16;;;;;;;7.13;3.80;;;;;;;-141.50;100.00;63355.56;5108083;28;20070;-80
2024/02/03 04:52:43;;;;;;;7.43;3.65;;;;;;;-141.50;100.00;63355.56;5109271;28;20134;-80
2024/02/03 04:55:10;;;;;;;8.85;3.83;;;;;;;-141.50;100.00;63355.56;5108854;28;20051;-81
2024/02/03 04:57:37;;;;;;;7.03;3.83;;;;;;;-141.50;100.00;63355.56;5082184;28;20079;-79
2024/02/03 05:00:05;;;;;;;7.97;3.85;;;;;;;-141.50;100.00;63355.56;5091447;28;20052;-81
2024/02/03 05:02:31;;;;;;;11.23;3.65;;;;;;;-141.50;100.00;63355.56;5083068;28;20081;-82
2024/02/03 05:04:58;;;;;;;6.68;3.15;;;;;;;-141.50;100.00;63355.56;5109914;28;20060;-80
2024/02/03 05:07:25;;;;;;;10.02;3.92;;;;;;;-141.50;100.00;63355.56;5089152;28;20074;-79
2024/02/03 05:09:52;;;;;;;6.97;3.60;;;;;;;-141.50;100.00;63355.56;5090435;28;20068;-78
2024/02/03 05:12:18;;;;;;;8.98;3.90;;;;;;;-141.50;100.00;63355.56;5103620;28;20052;-80
2024/02/03 05:14:45;;;;;;;7.28;3.45;;;;;;;-141.50;100.00;63355.56;5108731;28;20093;-79
2024/02/03 05:17:12;;;;;;;7.60;3.08;;;;;;;-141.50;100.00;63355.56;5103042;28;20140;-81
2024/02/03 05:19:39;;;;;;;7.32;3.67;;;;;;;-141.50;100.00;63355.56;5106590;28;20536;-80
2024/02/03 05:22:06;;;;;;;9.10;3.13;;;;;;;-141.50;100.00;63355.56;5078460;28;20060;-81
2024/02/03 05:24:33;;;;;;;8.10;3.35;;;;;;;-141.50;100.00;63355.56;5077011;28;20144;-81
2024/02/03 05:26:59;;;;;;;6.57;3.42;;;;;;;-141.50;100.00;63355.56;5098851;28;20043;-80
2024/02/03 05:29:26;;;;;;;6.10;3.38;;;;;;;-141.50;100.00;63355.56;5081649;28;20063;-79
2024/02/03 05:31:53;;;;;;;5.75;2.97;;;;;;;-141.50;100.00;63355.56;5104963;28;20052;-80
2024/02/03 05:34:19;;;;;;;6.35;3.13;;;;;;;-141.50;100.00;63355.56;5085831;28;20055;-79
2024/02/03 05:36:46;;;;;;;7.70;3.10;;;;;;;-141.50;100.00;63355.56;5090074;28;20553;-81
2024/02/03 05:39:13;;;;;;;5.13;2.80;;;;;;;-141.50;100.00;63355.56;5107469;28;20047;-79
2024/02/03 05:41:40;;;;;;;5.55;2.72;;;;;;;-141.50;100.00;63355.56;5062717;28;20438;-80
2024/02/03 05:44:07;;;;;;;4.15;2.67;;;;;;;-141.50;100.00;63355.56;5066154;28;20071;-81
2024/02/03 05:46:33;;;;;;;6.47;3.20;;;;;;;-141.50;100.00;63355.56;5069244;28;20043;-79
2024/02/03 05:49:00;;;;;;;4.85;3.13;;;;;;;-141.50;100.00;63355.56;5089408;28;20090;-78
2024/02/03 05:51:27;;;;;;;5.95;2.63;;;;;;;-141.50;100.00;63355.56;5069295;28;20054;-81
2024/02/03 05:53:55;;;;;;;5.03;2.80;;;;;;;-141.50;100.00;63355.56;5078583;28;20524;-82
2024/02/03 05:56:21;;;;;;;6.68;3.10;;;;;;;-141.50;100.00;63355.56;5081910;28;20047;-79
2024/02/03 05:58:48;;;;;;;7.22;3.08;;;;;;;-141.50;100.00;63355.56;5098404;28;20044;-79
2024/02/03 06:01:21;;;;;;;4.97;2.50;;;;;;;-141.50;100.00;63355.56;5076185;28;20139;-79
2024/02/03 06:03:47;;;;;;;4.03;2.60;;;;;;;-141.50;100.00;63355.56;5081925;28;20509;-77
2024/02/03 06:06:14;;;;;;;6.78;2.50;;;;;;;-141.50;100.00;63355.56;5098681;28;20513;-79
2024/02/03 06:08:54;;;;;;;5.82;2.45;;;;;;;-141.50;100.00;63355.56;5077533;28;20056;-80
2024/02/03 06:11:20;;;;;;;5.15;2.55;;;;;;;-141.50;100.00;63355.56;5087674;28;20059;-81
2024/02/03 06:13:47;;;;;;;5.72;2.40;;;;;;;-141.50;100.00;63355.56;5087674;28;20472;-80
2024/02/03 06:16:14;;;;;;;3.28;2.17;;;;;;;-141.50;100.00;63355.56;5085317;28;20522;-80
2024/02/03 06:18:40;;;;;;;4.32;2.00;;;;;;;-141.50;100.00;63355.56;5074417;28;20044;-79
2024/02/03 06:21:07;;;;;;;4.22;2.10;;;;;;;-141.50;100.00;63355.56;5077574;28;20063;-81
2024/02/03 06:23:34;;;;;;;4.47;2.38;;;;;;;-141.50;100.00;63355.56;5082952;28;20052;-80
2024/02/03 06:26:01;;;;;;;3.28;2.00;;;;;;;-141.50;100.00;63355.56;5092882;28;20357;-79
2024/02/03 06:28:27;;;;;;;5.20;1.80;;;;;;;-141.50;100.00;63355.56;5085123;28;20078;-80
2024/02/03 06:30:54;;;;;;;3.00;1.73;;;;;;;-141.50;100.00;63355.56;5086088;28;20071;-80
2024/02/03 06:33:21;;;;;;;3.97;1.85;;;;;;;-141.50;100.00;63355.56;5083973;28;20052;-80
2024/02/03 06:35:48;;;;;;;2.72;1.67;;;;;;;-141.50;100.00;63355.56;5084340;28;20553;-85
2024/02/03 06:38:15;;;;;;;3.08;1.48;;;;;;;-141.50;100.00;63355.56;5088275;28;20056;-79
2024/02/03 06:40:41;;;;;;;3.20;1.42;;;;;;;-141.50;100.00;63355.56;5092035;28;20085;-80
2024/02/03 06:43:08;;;;;;;3.20;1.45;;;;;;;-141.50;100.00;63355.56;5092092;28;20052;-81
2024/02/03 06:45:37;;;;;;;2.28;1.50;;;;;;;-141.50;100.00;63355.56;5090831;28;20048;-80
2024/02/03 06:48:04;;;;;;;5.68;1.67;;;;;;;-141.50;100.00;63355.56;5074952;28;20133;-81
2024/02/03 06:50:31;;;;;;;4.53;1.60;;;;;;;-141.50;100.00;63355.56;5091697;28;20070;-79
2024/02/03 06:53:02;;;;;;;3.40;1.67;;;;;;;-141.50;100.00;63355.56;5093235;28;20051;-80
2024/02/03 06:55:29;;;;;;;2.72;1.58;;;;;;;-141.50;100.00;63355.56;5093428;28;20052;-81
2024/02/03 06:57:55;;;;;;;1.73;1.33;;;;;;;-141.50;100.00;63355.56;5113854;28;20092;-82
2024/02/03 07:00:23;;;;;;;1.48;1.15;;;;;;;-141.50;100.00;63355.56;5092967;28;20059;-78
2024/02/03 07:02:50;;;;;;;2.22;1.45;;;;;;;-141.50;100.00;63355.56;5112267;27;20103;-79
2024/02/03 07:05:16;;;;;;;4.45;1.33;;;;;;;-141.50;100.00;63355.56;5095946;28;20055;-78
2024/02/03 07:07:43;;;;;;;2.33;1.30;;;;;;;-141.50;100.00;63355.56;5115836;27;20040;-78
2024/02/03 07:10:10;;;;;;;3.67;1.38;;;;;;;-141.50;100.00;63355.56;5115271;28;20351;-81
2024/02/03 07:12:37;;;;;;;2.72;1.40;;;;;;;-141.50;100.00;63355.56;5101299;28;20058;-80
2024/02/03 07:15:05;;;;;;;4.68;1.20;;;;;;;-141.50;100.00;63355.56;5115799;28;20063;-80
2024/02/03 07:17:32;;;;;;;2.03;1.15;;;;;;;-141.50;100.00;63355.56;5096243;27;20055;-79
2024/02/03 07:19:59;;;;;;;3.05;1.30;;;;;;;-141.50;100.00;63355.56;5095021;28;20061;-80
2024/02/03 07:22:28;;;;;;;1.90;1.20;;;;;;;-141.50;100.00;63355.56;5109858;27;20071;-79
2024/02/03 07:24:54;;;;;;;1.60;0.98;;;;;;;-141.50;100.00;63355.56;5102312;28;20063;-81
2024/02/03 07:27:21;;;;;;;1.77;1.15;;;;;;;-141.50;100.00;63355.56;5097425;27;20304;-82
2024/02/03 07:29:48;;;;;;;2.20;1.13;;;;;;;-141.50;100.00;63355.56;5113898;27;20039;-82
2024/02/03 07:32:15;;;;;;;1.65;1.05;;;;;;;-141.50;100.00;63355.56;5095063;28;20051;-80
2024/02/03 07:34:42;;;;;;;2.28;1.02;;;;;;;-141.50;100.00;63355.56;5116216;27;20779;-80
2024/02/03 07:37:09;;;;;;;2.25;1.23;;;;;;;-141.50;100.00;63355.56;5115685;28;20108;-81
2024/02/03 07:39:36;;;;;;;2.60;1.20;;;;;;;-141.50;100.00;63355.56;5101412;28;20039;-80
2024/02/03 07:42:03;;;;;;;2.03;1.20;;;;;;;-141.50;100.00;63355.56;5094186;28;20129;-81
2024/02/03 07:44:31;;;;;;;3.67;1.20;;;;;;;-141.50;100.00;63355.56;5113176;28;20045;-81
2024/02/03 07:47:00;;;;;;;1.50;0.90;;;;;;;-141.50;100.00;63355.56;5109820;28;20051;-79
2024/02/03 07:49:27;;;;;;;1.90;1.00;;;;;;;-141.50;100.00;63355.56;5075441;28;20465;-80
2024/02/03 07:51:54;;;;;;;2.25;1.08;;;;;;;-141.50;100.00;63355.56;5092960;28;20043;-79
2024/02/03 07:54:23;;;;;;;1.75;0.90;;;;;;;-141.50;100.00;63355.56;5093846;28;20043;-81
2024/02/03 07:56:49;;;;;;;1.92;0.95;;;;;;;-141.50;100.00;63355.56;5110182;28;20070;-80
2024/02/03 07:59:16;;;;;;;1.42;0.90;;;;;;;-141.50;100.00;63355.56;5110252;28;20417;-82
2024/02/03 08:01:43;;;;;;;1.25;0.80;;;;;;;-141.50;100.00;63355.56;5108490;28;20135;-82
2024/02/03 08:04:10;;;;;;;1.27;0.80;;;;;;;-141.50;100.00;63355.56;5105714;27;20086;-81
2024/02/03 08:06:36;;;;;;;1.63;1.10;;;;;;;-141.50;100.00;63355.56;5087940;28;20641;-80
2024/02/03 08:09:03;;;;;;;1.50;1.00;;;;;;;-141.50;100.00;63355.56;5111419;27;20121;-80
2024/02/03 08:11:30;;;;;;;2.17;1.17;;;;;;;-141.50;100.00;63355.56;5103217;28;20130;-84
2024/02/03 08:13:57;;;;;;;1.33;0.90;;;;;;;-141.50;100.00;63355.56;5087244;28;20117;-81
2024/02/03 08:16:24;;;;;;;2.47;1.20;;;;;;;-141.50;100.00;63355.56;5103715;27;20056;-80
2024/02/03 08:18:51;;;;;;;2.13;1.13;;;;;;;-141.50;100.00;63355.56;5100841;27;20043;-81
2024/02/03 08:21:17;;;;;;;2.15;1.17;;;;;;;-141.50;100.00;63355.56;5116679;27;20067;-80
2024/02/03 08:23:44;;;;;;;2.35;1.13;;;;;;;-141.50;100.00;63355.56;5116507;27;20567;-79
2024/02/03 08:26:12;;;;;;;5.15;1.42;;;;;;;-141.50;100.00;63355.56;5089849;28;20134;-79
2024/02/03 08:28:39;;;;;;;1.85;1.13;;;;;;;-141.50;100.00;63355.56;5075276;28;20052;-80
2024/02/03 08:31:05;;;;;;;3.58;1.00;;;;;;;-141.50;100.00;63355.56;5095926;28;20051;-80
2024/02/03 08:33:32;;;;;;;2.35;1.08;;;;;;;-141.50;100.00;63355.56;5083201;28;20048;-79
2024/02/03 08:35:59;;;;;;;1.63;0.82;;;;;;;-141.50;100.00;63355.56;5087237;28;20056;-79
2024/02/03 08:38:26;;;;;;;3.20;0.98;;;;;;;-141.50;100.00;63355.56;5113019;28;20056;-81
2024/02/03 08:40:52;;;;;;;1.17;0.70;;;;;;;-141.50;100.00;63355.56;5112375;28;20418;-78
2024/02/03 08:43:19;;;;;;;1.92;0.93;;;;;;;-141.50;100.00;63355.56;5112156;28;20085;-78
2024/02/03 08:45:46;;;;;;;1.13;0.65;;;;;;;-141.50;100.00;63355.56;5108813;28;20040;-81
2024/02/03 08:48:12;;;;;;;2.17;0.75;;;;;;;-141.50;100.00;63355.56;5066434;28;20048;-80
2024/02/03 08:50:40;;;;;;;1.02;0.70;;;;;;;-141.50;100.00;63355.56;5107866;28;20134;-80
2024/02/03 08:53:07;;;;;;;1.70;0.80;;;;;;;-141.50;100.00;63355.56;5094696;28;20055;-78
2024/02/03 08:55:34;;;;;;;1.23;0.60;;;;;;;-141.50;100.00;63355.56;5094609;28;20134;-80
2024/02/03 08:58:01;;;;;;;2.50;0.55;;;;;;;-141.50;100.00;63355.56;5093173;28;20063;-79
2024/02/03 09:00:28;;;;;;;0.95;0.60;;;;;;;-141.50;100.00;63355.56;5087611;28;20302;-80
2024/02/03 09:02:54;;;;;;;0.77;0.60;;;;;;;-141.50;100.00;63355.56;5108788;27;20219;-79
2024/02/03 09:05:21;;;;;;;0.57;0.38;;;;;;;-141.50;100.00;63355.56;5103793;28;20081;-80
2024/02/03 09:07:49;;;;;;;1.30;0.50;;;;;;;-141.50;100.00;63355.56;5062120;28;20044;-80
2024/02/03 09:10:16;;;;;;;1.20;0.60;;;;;;;-141.50;100.00;63355.56;5104929;27;20130;-78
2024/02/03 09:12:43;;;;;;;0.65;0.40;;;;;;;-141.50;100.00;63355.56;5112230;27;20048;-81
2024/02/03 09:15:09;;;;;;;0.77;0.52;;;;;;;-141.50;100.00;63355.56;5106547;28;20055;-79
2024/02/03 09:17:36;;;;;;;1.85;0.52;;;;;;;-141.50;100.00;63355.56;5089301;28;20051;-81
2024/02/03 09:20:04;;;;;;;1.95;0.65;;;;;;;-141.50;100.00;63355.56;5116906;28;20056;-82
2024/02/03 09:22:31;;;;;;;1.83;0.60;;;;;;;-141.50;100.00;63355.56;5080864;28;20062;-82
2024/02/03 09:24:59;;;;;;;0.90;0.60;;;;;;;-141.50;100.00;63355.56;5069408;28;20135;-82
2024/02/03 09:27:29;;;;;;;0.90;0.45;;;;;;;-141.50;100.00;63355.56;5104258;28;20078;-81
2024/02/03 09:29:56;;;;;;;0.80;0.50;;;;;;;-141.50;100.00;63355.56;5107042;28;20047;-80
2024/02/03 09:32:26;;;;;;;2.95;0.52;;;;;;;-141.50;100.00;63355.56;5107183;28;20425;-78
2024/02/03 09:34:53;;;;;;;1.65;0.60;;;;;;;-141.50;100.00;63355.56;5078195;28;20096;-81
2024/02/03 09:37:20;;;;;;;1.48;0.77;;;;;;;-141.50;100.00;63355.56;5081846;28;20075;-81
2024/02/03 09:39:50;;;;;;;0.98;0.63;;;;;;;-141.50;100.00;63355.56;5104621;28;20096;-80
2024/02/03 09:42:17;;;;;;;1.30;0.47;;;;;;;-141.50;100.00;63355.56;5065272;28;20060;-79
2024/02/03 09:44:45;;;;;;;0.80;0.50;;;;;;;-141.50;100.00;63355.56;5104589;28;20051;-78
2024/02/03 09:47:14;;;;;;;1.17;0.60;;;;;;;-141.50;100.00;63355.56;5107917;28;20056;-78
2024/02/03 09:49:42;;;;;;;0.82;0.52;;;;;;;-141.50;100.00;63355.56;5081810;28;20533;-78
2024/02/03 09:52:15;;;;;;;2.15;0.60;;;;;;;-141.50;100.00;63355.56;5095917;28;20298;-80
2024/02/03 09:54:46;;;;;;;1.60;0.68;;;;;;;-141.50;100.00;63355.56;5075054;28;20051;-78
2024/02/03 09:57:15;;;;;;;2.25;0.80;;;;;;;-141.50;100.00;63355.56;5057570;28;20070;-79
2024/02/03 09:59:48;;;;;;;1.45;0.60;;;;;;;-141.50;100.00;63355.56;5085191;28;20105;-81
2024/02/03 10:02:15;;;;;;;1.50;0.80;;;;;;;-141.50;100.00;63355.56;5085341;28;20063;-81
2024/02/03 10:04:45;;;;;;;1.42;0.70;;;;;;;-141.50;100.00;63355.56;5090304;28;20054;-79
2024/02/03 10:07:17;;;;;;;2.08;0.50;;;;;;;-141.50;100.00;63355.56;5092782;28;20060;-81
2024/02/03 10:09:44;;;;;;;1.65;0.63;;;;;;;-141.50;100.00;63355.56;5084019;28;20146;-81
2024/02/03 10:12:22;;;;;;;1.45;0.80;;;;;;;-141.50;100.00;63355.56;5090795;28;20156;-79
2024/02/03 10:15:05;;;;;;;1.02;0.52;;;;;;;-141.50;100.00;63355.56;5090390;28;20076;-82
2024/02/03 10:17:32;;;;;;;0.65;0.43;;;;;;;-141.50;100.00;63355.56;5100647;28;20068;-80
2024/02/03 10:19:59;;;;;;;0.90;0.60;;;;;;;-141.50;100.00;63355.56;5097993;28;20586;-82
2024/02/03 10:22:26;;;;;;;1.13;0.50;;;;;;;-141.50;100.00;63355.56;5089769;28;20047;-82
2024/02/03 10:25:09;;;;;;;1.05;0.57;;;;;;;-141.50;100.00;63355.56;5080953;28;20061;-80
2024/02/03 10:27:40;;;;;;;1.60;0.60;;;;;;;-141.50;100.00;63355.56;5099013;28;20138;-79
2024/02/03 10:30:08;;;;;;;1.77;0.60;;;;;;;-141.50;100.00;63355.56;5082575;28;20080;-80
2024/02/03 10:32:34;;;;;;;1.60;0.60;;;;;;;-141.50;100.00;63355.56;5099288;28;20059;-81
2024/02/03 10:35:02;;;;;;;0.60;0.43;;;;;;;-141.50;100.00;63355.56;5088945;28;20572;-80
2024/02/03 10:37:29;;;;;;;2.15;0.52;;;;;;;-141.50;100.00;63355.56;5073450;28;20156;-79
2024/02/03 10:39:56;;;;;;;2.15;0.77;;;;;;;-141.50;100.00;63355.56;5067084;28;20051;-78
2024/02/03 10:42:25;;;;;;;1.52;0.70;;;;;;;-141.50;100.00;63355.56;5070425;28;20067;-76
2024/02/03 10:44:57;;;;;;;1.27;0.63;;;;;;;-141.50;100.00;63355.56;5081213;28;20052;-78
2024/02/03 10:47:24;;;;;;;4.80;0.80;;;;;;;-141.50;100.00;63355.56;5094023;28;20059;-78
2024/02/03 10:49:55;;;;;;;0.80;0.60;;;;;;;-141.50;100.00;63355.56;5106625;28;20513;-78
2024/02/03 10:52:25;;;;;;;2.13;0.73;;;;;;;-141.50;100.00;63355.56;5088966;28;20070;-78
2024/02/03 10:54:56;;;;;;;1.05;0.60;;;;;;;-141.50;100.00;63355.56;5110367;28;20064;-79
2024/02/03 10:57:25;;;;;;;1.73;0.80;;;;;;;-141.50;100.00;63355.56;5094514;28;20444;-80
2024/02/03 11:00:16;;;;;;;1.23;0.70;;;;;;;-141.50;100.00;63355.56;5093970;28;20074;-78
2024/02/03 11:02:53;;;;;;;1.55;0.80;;;;;;;-141.50;100.00;63355.56;5111400;28;20537;-79
2024/02/03 11:05:26;;;;;;;1.73;0.77;;;;;;;-141.50;100.00;63355.56;5105715;28;20047;-80
2024/02/03 11:07:54;;;;;;;1.45;0.68;;;;;;;-141.50;100.00;63355.56;5106310;28;20056;-79